createdAt,value
2023-01-29T00:02:07.906Z,909.80
2023-01-29T00:04:34.638Z,2129.25
2023-01-29T00:07:01.425Z,2231.60
2023-01-29T00:09:29.495Z,372.25
2023-01-29T00:11:56.206Z,1908.20
2023-01-29T00:14:22.877Z,1558.40
2023-01-29T00:16:49.569Z,629.50
2023-01-29T00:19:16.239Z,68.33
2023-01-29T00:21:42.848Z,925.00
2023-01-29T00:24:09.499Z,72.50
2023-01-29T00:26:37.557Z,908.50
2023-01-29T00:29:04.381Z,1317.00
2023-01-29T00:31:31.258Z,2648.50
2023-01-29T00:33:58.130Z,55.33
2023-01-29T00:36:26.422Z,2441.80
2023-01-29T00:38:56.344Z,1724.75
2023-01-29T00:41:23.041Z,1467.60
2023-01-29T00:43:51.097Z,1798.40
2023-01-29T00:46:17.785Z,287.00
2023-01-29T00:48:44.643Z,1724.00
2023-01-29T00:51:11.307Z,996.80
2023-01-29T00:53:37.960Z,1620.50
2023-01-29T00:56:05.264Z,371.60
2023-01-29T00:58:31.911Z,3378.50
2023-01-29T01:01:01.025Z,1317.20
2023-01-29T01:03:28.355Z,697.40
2023-01-29T01:06:05.258Z,32.50
2023-01-29T01:08:32.304Z,43.67
2023-01-29T01:11:01.407Z,37.25
2023-01-29T01:13:28.221Z,25.25
2023-01-29T01:15:55.497Z,304.00
2023-01-29T01:18:23.581Z,829.80
2023-01-29T01:20:50.249Z,42.33
2023-01-29T01:23:17.293Z,28.25
2023-01-29T01:25:43.970Z,452.50
2023-01-29T01:28:10.683Z,1645.40
2023-01-29T01:30:37.394Z,704.25
2023-01-29T01:33:04.116Z,1434.75
2023-01-29T01:35:32.230Z,1960.80
2023-01-29T01:37:58.917Z,1540.40
2023-01-29T01:40:26.677Z,906.00
2023-01-29T01:42:56.201Z,1815.60
2023-01-29T01:45:29.320Z,39.75
2023-01-29T01:48:01.174Z,1310.80
2023-01-29T01:50:35.063Z,823.75
2023-01-29T01:53:06.478Z,1497.25
2023-01-29T01:55:35.204Z,1641.20
2023-01-29T01:58:07.363Z,428.00
2023-01-29T02:00:34.568Z,1412.50
2023-01-29T02:03:02.332Z,2042.00
2023-01-29T02:05:30.737Z,1394.60
2023-01-29T02:07:59.688Z,1322.75
2023-01-29T02:10:30.699Z,2052.80
2023-01-29T02:12:57.344Z,1005.00
2023-01-29T02:15:24.038Z,1624.00
2023-01-29T02:17:50.940Z,821.60
2023-01-29T02:20:21.494Z,194.75
2023-01-29T02:23:15.825Z,1115.50
2023-01-29T02:26:04.323Z,1551.60
2023-01-29T02:28:43.876Z,885.75
2023-01-29T02:31:24.177Z,77.00
2023-01-29T02:34:01.186Z,573.40
2023-01-29T02:36:35.773Z,487.00
2023-01-29T02:39:13.118Z,39.67
2023-01-29T02:41:45.507Z,36.67
2023-01-29T02:44:18.849Z,30.50
2023-01-29T02:46:53.135Z,2174.60
2023-01-29T02:49:24.882Z,785.50
2023-01-29T02:52:00.459Z,2696.60
2023-01-29T02:54:34.828Z,475.80
2023-01-29T02:57:07.278Z,81.75
2023-01-29T02:59:40.727Z,987.00
2023-01-29T03:02:12.172Z,1192.00
2023-01-29T03:04:43.839Z,311.00
2023-01-29T03:07:17.245Z,1446.00
2023-01-29T03:09:49.449Z,1308.50
2023-01-29T03:12:23.283Z,80.40
2023-01-29T03:14:51.818Z,149.40
2023-01-29T03:17:21.139Z,14.00
2023-01-29T03:19:49.232Z,482.75
2023-01-29T03:22:18.260Z,81.00
2023-01-29T03:24:48.854Z,70.60
2023-01-29T03:27:20.558Z,26.40
2023-01-29T03:29:50.524Z,902.40
2023-01-29T03:32:21.522Z,895.20
2023-01-29T03:34:50.357Z,86.50
2023-01-29T03:37:23.869Z,1454.40
2023-01-29T03:39:50.569Z,647.80
2023-01-29T03:42:25.062Z,643.80
2023-01-29T03:44:58.148Z,1220.00
2023-01-29T03:47:38.451Z,1311.40
2023-01-29T03:50:10.470Z,2124.25
2023-01-29T03:52:42.750Z,702.00
2023-01-29T03:55:15.365Z,1467.20
2023-01-29T03:57:47.141Z,403.60
2023-01-29T04:00:18.794Z,639.60
2023-01-29T04:02:55.417Z,683.50
2023-01-29T04:05:27.021Z,1197.75
2023-01-29T04:08:00.169Z,1863.80
2023-01-29T04:10:27.711Z,901.80
2023-01-29T04:12:58.777Z,57.00
2023-01-29T04:15:29.841Z,1118.80
2023-01-29T04:17:58.021Z,1878.60
2023-01-29T04:20:25.711Z,272.75
2023-01-29T04:22:53.424Z,21.00
2023-01-29T04:25:22.759Z,11.00
2023-01-29T04:27:58.519Z,9.25
2023-01-29T04:30:32.500Z,36.50
2023-01-29T04:33:11.522Z,1055.40
2023-01-29T04:35:54.489Z,61.50
2023-01-29T04:38:33.723Z,473.40
2023-01-29T04:41:08.816Z,223.40
2023-01-29T04:43:41.498Z,483.80
2023-01-29T04:46:15.838Z,647.20
2023-01-29T04:48:58.147Z,1304.60
2023-01-29T04:51:34.492Z,1509.00
2023-01-29T04:54:09.845Z,483.80
2023-01-29T04:56:42.927Z,975.60
2023-01-29T04:59:14.200Z,404.00
2023-01-29T05:01:41.283Z,1229.20
2023-01-29T05:04:13.064Z,82.60
2023-01-29T05:06:41.579Z,651.40
2023-01-29T05:09:09.516Z,76.20
2023-01-29T05:11:37.099Z,1394.80
2023-01-29T05:14:07.041Z,1531.00
2023-01-29T05:16:39.936Z,1227.60
2023-01-29T05:19:06.629Z,739.60
2023-01-29T05:21:34.668Z,1708.00
2023-01-29T05:24:10.684Z,153.80
2023-01-29T05:26:37.838Z,410.40
2023-01-29T05:29:05.515Z,491.00
2023-01-29T05:31:32.347Z,404.80
2023-01-29T05:33:59.065Z,733.60
2023-01-29T05:36:25.816Z,888.80
2023-01-29T05:38:53.954Z,150.20
2023-01-29T05:41:20.641Z,1227.40
2023-01-29T05:43:47.366Z,50.00
2023-01-29T05:46:14.157Z,885.80
2023-01-29T05:48:40.813Z,731.40
2023-01-29T05:51:07.554Z,39.75
2023-01-29T05:53:34.328Z,56.80
2023-01-29T05:56:03.343Z,1622.20
2023-01-29T05:58:30.798Z,52.00
2023-01-29T06:00:57.848Z,1477.00
2023-01-29T06:03:24.549Z,461.50
2023-01-29T06:05:51.224Z,37.75
2023-01-29T06:08:17.939Z,57.33
2023-01-29T06:10:44.626Z,34.00
2023-01-29T06:13:12.815Z,61.33
2023-01-29T06:15:39.906Z,46.50
2023-01-29T06:18:06.599Z,461.60
2023-01-29T06:20:33.324Z,644.20
2023-01-29T06:23:00.359Z,1289.25
2023-01-29T06:25:27.075Z,879.20
2023-01-29T06:27:53.751Z,232.75
2023-01-29T06:30:22.316Z,25.75
2023-01-29T06:32:49.086Z,1218.20
2023-01-29T06:35:15.938Z,379.60
2023-01-29T06:37:42.782Z,2126.80
2023-01-29T06:40:10.806Z,27.50
2023-01-29T06:42:37.487Z,1304.40
2023-01-29T06:45:04.876Z,3504.40
2023-01-29T06:47:32.960Z,658.40
2023-01-29T06:49:59.989Z,25.00
2023-01-29T06:52:26.705Z,247.20
2023-01-29T06:54:53.439Z,1543.60
2023-01-29T06:57:20.292Z,28.00
2023-01-29T06:59:46.970Z,1677.00
2023-01-29T07:02:14.153Z,54.67
2023-01-29T07:04:42.226Z,46.00
2023-01-29T07:07:09.098Z,880.00
2023-01-29T07:09:35.738Z,1289.80
2023-01-29T07:12:02.411Z,21.25
2023-01-29T07:14:29.115Z,21.25
2023-01-29T07:16:55.805Z,22.50
2023-01-29T07:19:22.546Z,29.25
2023-01-29T07:21:50.667Z,51.25
2023-01-29T07:24:17.398Z,20.00
2023-01-29T07:26:44.083Z,37.00
2023-01-29T07:29:10.965Z,18.50
2023-01-29T07:31:37.773Z,21.50
2023-01-29T07:34:04.573Z,15.25
2023-01-29T07:36:31.315Z,51.33
2023-01-29T07:38:59.517Z,454.33
2023-01-29T07:41:26.226Z,15.50
2023-01-29T07:43:52.928Z,873.67
2023-01-29T07:46:19.635Z,36.67
2023-01-29T07:48:46.336Z,26.75
2023-01-29T07:51:13.026Z,20.75
2023-01-29T07:53:39.750Z,39.00
2023-01-29T07:56:08.213Z,14.75
2023-01-29T07:58:36.658Z,15.75
2023-01-29T08:01:05.959Z,23.50
2023-01-29T08:03:32.624Z,16.25
2023-01-29T08:05:59.360Z,11.00
2023-01-29T08:08:26.045Z,14.25
2023-01-29T08:10:52.752Z,11.00
2023-01-29T08:13:21.051Z,12.00
2023-01-29T08:15:47.791Z,10.25
2023-01-29T08:18:14.943Z,23.50
2023-01-29T08:20:41.746Z,13.75
2023-01-29T08:23:12.573Z,12.75
2023-01-29T08:25:39.334Z,17.00
2023-01-29T08:28:06.141Z,327.75
2023-01-29T08:30:35.217Z,14.50
2023-01-29T08:33:04.234Z,26.50
2023-01-29T08:35:31.080Z,326.00
2023-01-29T08:37:59.249Z,37.33
2023-01-29T08:40:26.706Z,37.25
2023-01-29T08:42:58.239Z,41.00
2023-01-29T08:45:27.111Z,35.75
2023-01-29T08:47:55.184Z,33.75
2023-01-29T08:50:21.958Z,45.50
2023-01-29T08:52:48.606Z,41.50
2023-01-29T08:55:15.675Z,729.67
2023-01-29T08:57:42.911Z,49.50
2023-01-29T09:00:10.742Z,40.25
2023-01-29T09:02:37.794Z,58.50
2023-01-29T09:05:07.385Z,53.00
2023-01-29T09:07:34.129Z,31.25
2023-01-29T09:10:00.849Z,32.00
2023-01-29T09:12:27.680Z,59.50
2023-01-29T09:14:54.405Z,720.67
2023-01-29T09:17:21.225Z,51.00
2023-01-29T09:19:47.945Z,51.67
2023-01-29T09:22:16.013Z,25.50
2023-01-29T09:24:42.716Z,52.67
2023-01-29T09:27:09.441Z,446.67
2023-01-29T09:29:36.141Z,28.00
2023-01-29T09:32:03.663Z,21.75
2023-01-29T09:34:30.587Z,27.00
2023-01-29T09:36:57.281Z,23.75
2023-01-29T09:39:25.591Z,24.25
2023-01-29T09:41:59.944Z,26.25
2023-01-29T09:44:39.868Z,20.75
2023-01-29T09:47:11.637Z,22.25
2023-01-29T09:49:43.454Z,21.25
2023-01-29T09:52:16.237Z,23.00
2023-01-29T09:54:53.235Z,17.75
2023-01-29T09:57:29.085Z,28.75
2023-01-29T09:59:55.872Z,37.33
2023-01-29T10:02:49.497Z,9.00
2023-01-29T10:05:39.079Z,419.25
2023-01-29T10:08:36.526Z,12.25
2023-01-29T10:11:17.596Z,6.75
2023-01-29T10:13:52.111Z,24.00
2023-01-29T10:16:31.408Z,5.00
2023-01-29T10:19:30.122Z,24.00
2023-01-29T10:22:14.098Z,19.00
2023-01-29T10:24:52.559Z,15.00
2023-01-29T10:27:20.662Z,17.25
2023-01-29T10:29:52.547Z,18.00
2023-01-29T10:32:21.755Z,6.50
2023-01-29T10:34:53.186Z,13.25
2023-01-29T10:37:23.488Z,9.00
2023-01-29T10:39:50.926Z,14.50
2023-01-29T10:42:26.532Z,16.75
2023-01-29T10:45:08.957Z,9.25
2023-01-29T10:47:54.465Z,20.50
2023-01-29T10:50:36.340Z,11.50
2023-01-29T10:53:19.782Z,13.00
2023-01-29T10:55:56.899Z,18.75
2023-01-29T10:58:35.051Z,735.50
2023-01-29T11:01:01.906Z,331.25
2023-01-29T11:03:30.576Z,15.00
2023-01-29T11:06:07.509Z,10.50
2023-01-29T11:08:40.190Z,326.00
2023-01-29T11:11:09.149Z,48.25
2023-01-29T11:13:43.470Z,626.75
2023-01-29T11:16:10.622Z,45.75
2023-01-29T11:18:57.802Z,43.50
2023-01-29T11:21:25.991Z,39.33
2023-01-29T11:24:06.538Z,6.75
2023-01-29T11:26:38.305Z,32.33
2023-01-29T11:29:43.962Z,37.67
2023-01-29T11:32:14.481Z,14.25
2023-01-29T11:34:57.927Z,20.75
2023-01-29T11:37:33.070Z,8.25
2023-01-29T11:39:59.799Z,412.00
2023-01-29T11:42:31.298Z,10.75
2023-01-29T11:45:00.136Z,9.25
2023-01-29T11:47:29.187Z,441.00
2023-01-29T11:49:57.969Z,14.25
2023-01-29T11:52:27.628Z,21.75
2023-01-29T11:54:59.883Z,11.75
2023-01-29T11:57:30.246Z,16.50
2023-01-29T12:00:02.563Z,4.50
2023-01-29T12:02:36.810Z,18.00
2023-01-29T12:05:13.975Z,17.25
2023-01-29T12:07:42.840Z,19.75
2023-01-29T12:10:30.780Z,25.50
2023-01-29T12:13:05.162Z,12.75
2023-01-29T12:15:34.696Z,23.25
2023-01-29T12:18:12.070Z,25.25
2023-01-29T12:20:44.097Z,1.00
2023-01-29T12:23:27.578Z,2.50
2023-01-29T12:26:01.152Z,2.00
2023-01-29T12:28:44.427Z,1.25
2023-01-29T12:31:29.450Z,15.25
2023-01-29T12:34:04.355Z,10.50
2023-01-29T12:36:38.659Z,7.50
2023-01-29T12:39:05.594Z,0.00
2023-01-29T12:41:44.518Z,2.00
2023-01-29T12:44:18.202Z,1.50
2023-01-29T12:46:50.416Z,808.00
2023-01-29T12:49:22.126Z,0.25
2023-01-29T12:51:55.117Z,16.50
2023-01-29T12:54:31.749Z,30.75
2023-01-29T12:57:02.734Z,16.25
2023-01-29T12:59:36.343Z,13.75
2023-01-29T13:02:10.142Z,11.75
2023-01-29T13:04:41.791Z,21.75
2023-01-29T13:07:14.583Z,28.50
2023-01-29T13:09:46.449Z,415.00
2023-01-29T13:12:16.560Z,11.25
2023-01-29T13:14:48.832Z,45.67
2023-01-29T13:17:25.402Z,49.00
2023-01-29T13:19:56.508Z,29.00
2023-01-29T13:22:26.149Z,187.33
2023-01-29T13:25:04.033Z,32.00
2023-01-29T13:27:34.111Z,33.25
2023-01-29T13:30:01.253Z,34.25
2023-01-29T13:32:30.609Z,615.25
2023-01-29T13:34:59.749Z,409.50
2023-01-29T13:37:32.313Z,15.50
2023-01-29T13:40:01.707Z,37.00
2023-01-29T13:42:40.062Z,23.75
2023-01-29T13:45:09.061Z,36.00
2023-01-29T13:47:39.456Z,6.25
2023-01-29T13:50:10.062Z,167.00
2023-01-29T13:52:40.160Z,3.00
2023-01-29T13:55:09.758Z,1.00
2023-01-29T13:57:56.005Z,6.25
2023-01-29T14:00:56.193Z,4.50
2023-01-29T14:04:09.947Z,413.00
2023-01-29T14:06:46.098Z,2.75
2023-01-29T14:09:55.280Z,9.50
2023-01-29T14:12:45.988Z,21.25
2023-01-29T14:15:22.180Z,3.25
2023-01-29T14:18:05.655Z,5.25
2023-01-29T14:20:45.713Z,10.00
2023-01-29T14:23:24.043Z,4.75
2023-01-29T14:25:51.105Z,11.25
2023-01-29T14:28:23.565Z,130.25
2023-01-29T14:30:51.389Z,34.00
2023-01-29T14:33:27.714Z,15.75
2023-01-29T14:35:57.673Z,0.25
2023-01-29T14:38:27.831Z,9.25
2023-01-29T14:41:05.787Z,10.50
2023-01-29T14:43:32.614Z,33.67
2023-01-29T14:46:43.925Z,2.50
2023-01-29T14:49:10.897Z,0.00
2023-01-29T14:51:43.229Z,296.75
2023-01-29T14:54:22.821Z,3.25
2023-01-29T14:56:58.061Z,5.25
2023-01-29T14:59:32.995Z,39.33
2023-01-29T15:02:05.107Z,297.25
2023-01-29T15:04:38.752Z,424.75
2023-01-29T15:07:19.335Z,637.25
2023-01-29T15:09:48.358Z,16.00
2023-01-29T15:12:23.483Z,34.25
2023-01-29T15:15:00.065Z,56.00
2023-01-29T15:17:30.816Z,418.33
2023-01-29T15:19:57.537Z,51.33
2023-01-29T15:22:25.652Z,16.25
2023-01-29T15:25:10.323Z,34.75
2023-01-29T15:27:42.048Z,29.00
2023-01-29T15:30:16.569Z,31.25
2023-01-29T15:32:43.498Z,48.00
2023-01-29T15:35:26.755Z,38.00
2023-01-29T15:38:03.612Z,37.67
2023-01-29T15:40:30.639Z,23.25
2023-01-29T15:42:57.311Z,3.00
2023-01-29T15:45:27.889Z,1.75
2023-01-29T15:48:00.379Z,35.00
2023-01-29T15:50:28.576Z,32.25
2023-01-29T15:52:57.695Z,128.25
2023-01-29T15:55:27.535Z,37.33
2023-01-29T15:57:55.022Z,47.25
2023-01-29T16:00:28.064Z,440.50
2023-01-29T16:02:59.363Z,46.25
2023-01-29T16:05:30.144Z,72.00
2023-01-29T16:07:59.311Z,67.75
2023-01-29T16:10:29.995Z,423.00
2023-01-29T16:12:58.324Z,30.00
2023-01-29T16:15:31.713Z,5.00
2023-01-29T16:17:59.280Z,4.00
2023-01-29T16:20:36.813Z,36.00
2023-01-29T16:23:05.679Z,33.00
2023-01-29T16:25:37.088Z,27.00
2023-01-29T16:28:05.780Z,418.33
2023-01-29T16:30:32.737Z,142.33
2023-01-29T16:33:04.676Z,15.50
2023-01-29T16:35:31.753Z,546.50
2023-01-29T16:38:02.948Z,29.75
2023-01-29T16:40:31.871Z,44.67
2023-01-29T16:43:42.424Z,45.25
2023-01-29T16:46:19.320Z,54.00
2023-01-29T16:48:47.237Z,45.50
2023-01-29T16:51:17.856Z,364.25
2023-01-29T16:53:55.917Z,51.33
2023-01-29T16:56:23.204Z,461.00
2023-01-29T16:58:52.404Z,452.33
2023-01-29T17:01:21.772Z,712.00
2023-01-29T17:03:56.604Z,64.67
2023-01-29T17:06:26.419Z,54.00
2023-01-29T17:08:53.631Z,55.33
2023-01-29T17:11:27.804Z,57.33
2023-01-29T17:13:57.471Z,434.67
2023-01-29T17:16:27.724Z,36.00
2023-01-29T17:18:54.909Z,29.25
2023-01-29T17:21:21.726Z,23.50
2023-01-29T17:23:48.487Z,26.50
2023-01-29T17:26:15.950Z,9.25
2023-01-29T17:28:43.269Z,29.50
2023-01-29T17:31:11.676Z,8.25
2023-01-29T17:33:41.324Z,26.25
2023-01-29T17:36:11.634Z,11.00
2023-01-29T17:38:38.304Z,11.25
2023-01-29T17:41:08.918Z,12.00
2023-01-29T17:43:35.690Z,33.50
2023-01-29T17:46:02.586Z,141.50
2023-01-29T17:48:31.158Z,1261.00
2023-01-29T17:51:02.014Z,44.25
2023-01-29T17:53:43.444Z,440.00
2023-01-29T17:56:16.539Z,25.00
2023-01-29T17:58:43.237Z,853.75
2023-01-29T18:01:09.928Z,179.33
2023-01-29T18:03:38.139Z,18.75
2023-01-29T18:06:07.230Z,58.33
2023-01-29T18:08:36.733Z,1164.25
2023-01-29T18:11:03.591Z,629.20
2023-01-29T18:13:30.336Z,1581.00
2023-01-29T18:15:57.162Z,32.50
2023-01-29T18:18:24.595Z,1352.20
2023-01-29T18:20:52.653Z,42.25
2023-01-29T18:23:19.452Z,17.00
2023-01-29T18:25:46.326Z,139.60
2023-01-29T18:28:15.417Z,16.00
2023-01-29T18:30:42.220Z,39.33
2023-01-29T18:33:09.208Z,7.00
2023-01-29T18:35:35.863Z,355.25
2023-01-29T18:38:04.045Z,53.33
2023-01-29T18:40:30.905Z,129.50
2023-01-29T18:42:57.653Z,30.00
2023-01-29T18:45:24.325Z,353.25
2023-01-29T18:47:51.035Z,744.50
2023-01-29T18:50:17.793Z,246.00
2023-01-29T18:52:44.895Z,7.75
2023-01-29T18:55:13.103Z,1199.20
2023-01-29T18:58:29.196Z,488.75
2023-01-29T19:00:26.460Z,873.75
2023-01-29T19:02:53.120Z,874.40
2023-01-29T19:05:20.141Z,1596.20
2023-01-29T19:07:46.941Z,454.40
2023-01-29T19:10:15.671Z,63.00
2023-01-29T19:12:42.437Z,1672.50
2023-01-29T19:15:10.483Z,37.67
2023-01-29T19:17:37.228Z,1678.25
2023-01-29T19:20:04.574Z,880.25
2023-01-29T19:22:31.802Z,545.80
2023-01-29T19:24:58.485Z,52.00
2023-01-29T19:27:26.594Z,19.50
2023-01-29T19:29:53.328Z,13.75
2023-01-29T19:32:20.138Z,17.50
2023-01-29T19:34:46.850Z,28.00
2023-01-29T19:37:13.572Z,16.00
2023-01-29T19:39:40.249Z,19.25
2023-01-29T19:42:06.891Z,12.50
2023-01-29T19:44:35.008Z,18.50
2023-01-29T19:47:01.877Z,424.25
2023-01-29T19:49:29.288Z,35.50
2023-01-29T19:51:56.052Z,13.50
2023-01-29T19:54:22.759Z,34.75
2023-01-29T19:56:49.576Z,21.50
2023-01-29T19:59:16.457Z,847.25
2023-01-29T20:01:44.554Z,1329.80
2023-01-29T20:04:11.615Z,1202.40
2023-01-29T20:06:38.357Z,2294.00
2023-01-29T20:09:05.542Z,2688.20
2023-01-29T20:11:32.930Z,307.40
2023-01-29T20:13:59.946Z,1953.40
2023-01-29T20:16:27.026Z,48.00
2023-01-29T20:18:55.131Z,1521.75
2023-01-29T20:21:41.471Z,511.80
2023-01-29T20:24:11.476Z,983.40
2023-01-29T20:26:38.305Z,2717.25
2023-01-29T20:29:05.031Z,1079.20
2023-01-29T20:31:31.817Z,2329.20
2023-01-29T20:33:59.884Z,825.25
2023-01-29T20:36:26.861Z,449.40
2023-01-29T20:38:53.535Z,336.50
2023-01-29T20:41:20.266Z,852.20
2023-01-29T20:43:47.520Z,47.50
2023-01-29T20:46:14.822Z,1476.40
2023-01-29T20:48:42.042Z,817.25
2023-01-29T20:51:12.079Z,32.00
2023-01-29T20:53:39.023Z,18.00
2023-01-29T20:56:06.728Z,45.25
2023-01-29T20:58:33.803Z,315.75
2023-01-29T21:01:00.637Z,28.25
2023-01-29T21:03:27.585Z,6.00
2023-01-29T21:05:54.357Z,33.25
2023-01-29T21:08:22.425Z,43.33
2023-01-29T21:10:49.653Z,427.67
2023-01-29T21:13:16.392Z,422.25
2023-01-29T21:15:43.106Z,339.00
2023-01-29T21:18:09.966Z,47.00
2023-01-29T21:20:36.700Z,49.67
2023-01-29T21:23:06.643Z,52.50
2023-01-29T21:25:35.129Z,602.60
2023-01-29T21:28:01.917Z,439.00
2023-01-29T21:30:28.610Z,1536.00
2023-01-29T21:32:55.367Z,2220.80
2023-01-29T21:35:22.125Z,2959.25
2023-01-29T21:37:48.804Z,537.50
2023-01-29T21:40:16.097Z,964.60
2023-01-29T21:42:44.835Z,2234.40
2023-01-29T21:45:11.587Z,1677.60
2023-01-29T21:47:38.304Z,620.75
2023-01-29T21:50:06.043Z,38.50
2023-01-29T21:52:32.779Z,1914.50
2023-01-29T21:54:59.489Z,1118.25
2023-01-29T21:57:26.236Z,1915.40
2023-01-29T21:59:54.426Z,1089.00
2023-01-29T22:02:22.590Z,1476.80
2023-01-29T22:04:49.479Z,3256.75
2023-01-29T22:07:16.478Z,3515.00
2023-01-29T22:09:43.427Z,2993.40
2023-01-29T22:12:10.540Z,3131.20
2023-01-29T22:14:37.259Z,3555.60
2023-01-29T22:17:05.400Z,2789.75
2023-01-29T22:19:32.144Z,3538.50
2023-01-29T22:21:58.770Z,3244.80
2023-01-29T22:24:25.465Z,2640.20
2023-01-29T22:26:52.219Z,2155.40
2023-01-29T22:29:18.968Z,668.40
2023-01-29T22:31:46.158Z,3514.60
2023-01-29T22:34:14.822Z,3554.25
2023-01-29T22:36:41.561Z,3401.40
2023-01-29T22:39:09.008Z,3934.60
2023-01-29T22:41:35.978Z,3149.80
2023-01-29T22:44:02.967Z,3942.40
2023-01-29T22:46:29.773Z,2927.60
2023-01-29T22:48:56.707Z,3869.20
2023-01-29T22:51:24.782Z,3073.60
2023-01-29T22:53:53.401Z,3517.20
2023-01-29T22:56:21.331Z,2702.00
2023-01-29T22:58:50.384Z,3247.00
2023-01-29T23:01:18.951Z,2975.50
2023-01-29T23:03:45.741Z,3367.40
2023-01-29T23:06:12.434Z,3051.75
2023-01-29T23:08:40.555Z,2298.25
2023-01-29T23:11:09.252Z,3378.60
2023-01-29T23:13:35.987Z,3445.00
2023-01-29T23:16:02.755Z,2017.25
2023-01-29T23:18:29.665Z,2321.25
2023-01-29T23:20:57.071Z,3840.80
2023-01-29T23:23:23.789Z,3184.00
2023-01-29T23:25:57.264Z,3666.75
2023-01-29T23:28:23.932Z,3975.50
2023-01-29T23:30:50.691Z,2895.60
2023-01-29T23:33:17.781Z,3184.00
2023-01-29T23:35:44.476Z,3848.25
2023-01-29T23:38:11.192Z,1241.60
2023-01-29T23:40:37.874Z,2795.40
2023-01-29T23:43:06.091Z,1062.60
2023-01-29T23:45:32.787Z,2394.00
2023-01-29T23:47:59.524Z,2203.25
2023-01-29T23:50:26.378Z,1636.00
2023-01-29T23:52:53.127Z,943.50
2023-01-29T23:55:19.839Z,1873.20
2023-01-29T23:57:46.567Z,1723.00
